This is the latest recevied weather packets stored in our database for station/object SV2AHT-14. If no packets are shown the sender has not sent any weather packets the latest 10 day(s).
| Time | Temp. | Humidity | Pressure | Rain* | Wind** | Luminosity | Snow |
|---|---|---|---|---|---|---|---|
| 1777067903 | 5° C | 63% | 815.5 hPa | - | - | - | - |
| 1777067859 | 5° C | 63% | 815.5 hPa | - | - | - | - |
| 1777066959 | 3.89° C | 63% | 813.7 hPa | - | - | - | - |
| 1777065158 | 5° C | 63% | 815.3 hPa | - | - | - | - |
| 1777061558 | 3.33° C | 61% | 813 hPa | - | - | - | - |
| 1777060658 | 5° C | 61% | 815.6 hPa | - | - | - | - |
| 1777059758 | 5° C | 60% | 815.4 hPa | - | - | - | - |
| 1777058893 | 5° C | 60% | 815.4 hPa | - | - | - | - |
| 1777058858 | 5° C | 60% | 815.4 hPa | - | - | - | - |
| 1777057058 | 5° C | 58% | 815.3 hPa | - | - | - | - |
| 1777055258 | 5.56° C | 57% | 814.5 hPa | - | - | - | - |
| 1777054365 | 6.11° C | 57% | 814 hPa | - | - | - | - |
| 1777053458 | 6.67° C | 56% | 814.5 hPa | - | - | - | - |
| 1777052558 | 7.22° C | 56% | 814.4 hPa | - | - | - | - |
| 1777042580 | 13.89° C | 51% | 814.5 hPa | - | - | - | - |
| 1777037178 | 13.33° C | 51% | 814.8 hPa | - | - | - | - |
| 1777033578 | 12.78° C | 55% | 814.6 hPa | - | - | - | - |
| 1777030882 | 10.56° C | 54% | 814.8 hPa | - | - | - | - |
| 1777029982 | 12.22° C | 53% | 814.7 hPa | - | - | - | - |
| 1777026382 | 11.67° C | 56% | 815 hPa | - | - | - | - |
| 1777024598 | 12.78° C | 57% | 814.9 hPa | - | - | - | - |
| 1777021881 | 11.67° C | 60% | 815 hPa | - | - | - | - |
| 1777020084 | 10.56° C | 63% | 815 hPa | - | - | - | - |
| 1777014358 | 6.11° C | 75% | 814.5 hPa | - | - | - | - |
| 1777013777 | 6.11° C | 75% | 814.5 hPa | - | - | - | - |
* Rain since midnight (hover to see other rain measurements)
** Current wind speed in m/s (hover to see current wind gust speed)